Portada
METAR-TAF:

METAR-TAF

Aeropuertos :

Harbin, China

Aeropuerto Internacional de Harbin

latitud: 45-45N, longitud: 126-46E, altitud: 143 m

Observación

El informe se hizo hace 59 minutos, a las 12:00 UTC
Viento 2 kt del norte-noreste
Temperatura 1°C
Humedad 51%
Presión 1019 hPa
Visibilidad 10 km o más
sin nubes por debajo de 1500 m y sin presencia de cumulonimbus.

METAR: ZYHB 261200Z 02001MPS CAVOK 01/M08 Q1019 NOSIG

Hora: 20:59 (12:59 UTC)

Pronóstico

El informe se hizo hace 3 horas y 57 minutos, a las 09:02 UTC
Pronóstico válido del 26 a las 12 UTC al 27 a las 12 UTC
Viento 8 kt del norte-noreste con ráfagas de 19 kt
Visibilidad: 6000 m
Nubes dispersas a una altura de 3000 ft

TAF: ZYHB 260902Z 2612/2712 02004G10MPS 6000 SCT030 TX09/2706Z TNM05/21Z

Observaciones y pronósticos meteorológicos de más de 4000 aeropuertos (mensajes METAR y TAF).

Los puntos amarillos y rojos representan las estaciones disponibles.

Ponga el ratón en el punto deseado para ver el nombre de la estación.

Haga clic para ver las observaciones y los pronósticos meteorológicos.

Para cambiar el mapa : haga clic en los botones verdes con una cruz de color negro para hacer un zoom, en el botón verde con un guión para alejar o en las flechas verdes para mapas adyacentes.


METAR-TAF: